createdAt,value
2018-07-28T00:00:59.924Z,1006.82
2018-07-28T00:01:59.949Z,1006.82
2018-07-28T00:02:59.975Z,1006.82
2018-07-28T00:04:00.005Z,1006.81
2018-07-28T00:05:00.034Z,1006.84
2018-07-28T00:06:00.055Z,1006.84
2018-07-28T00:07:00.081Z,1006.81
2018-07-28T00:08:00.105Z,1006.84
2018-07-28T00:09:00.130Z,1006.81
2018-07-28T00:10:00.158Z,1006.78
2018-07-28T00:11:00.170Z,1006.79
2018-07-28T00:12:00.197Z,1006.76
2018-07-28T00:13:00.241Z,1006.78
2018-07-28T00:14:00.248Z,1006.76
2018-07-28T00:15:00.275Z,1006.73
2018-07-28T00:16:00.300Z,1006.72
2018-07-28T00:17:00.327Z,1006.73
2018-07-28T00:18:00.352Z,1006.72
2018-07-28T00:19:00.376Z,1006.69
2018-07-28T00:20:00.404Z,1006.67
2018-07-28T00:21:00.428Z,1006.64
2018-07-28T00:22:00.442Z,1006.64
2018-07-28T00:23:00.468Z,1006.63
2018-07-28T00:24:00.497Z,1006.63
2018-07-28T00:25:00.522Z,1006.60
2018-07-28T00:26:00.548Z,1006.62
2018-07-28T00:27:00.575Z,1006.59
2018-07-28T00:28:00.597Z,1006.64
2018-07-28T00:29:00.624Z,1006.60
2018-07-28T00:30:00.650Z,1006.62
2018-07-28T00:31:00.675Z,1006.64
2018-07-28T00:32:00.691Z,1006.59
2018-07-28T00:33:00.717Z,1006.61
2018-07-28T00:34:00.742Z,1006.62
2018-07-28T00:35:00.782Z,1006.59
2018-07-28T00:36:00.794Z,1006.58
2018-07-28T00:37:00.820Z,1006.57
2018-07-28T00:38:00.847Z,1006.53
2018-07-28T00:39:00.872Z,1006.53
2018-07-28T00:40:00.896Z,1006.60
2018-07-28T00:41:00.921Z,1006.55
2018-07-28T00:42:00.948Z,1006.60
2018-07-28T00:43:00.962Z,1006.59
2018-07-28T00:44:00.991Z,1006.59
2018-07-28T00:45:01.016Z,1006.57
2018-07-28T00:46:01.042Z,1006.57
2018-07-28T00:47:01.067Z,1006.56
2018-07-28T00:48:01.094Z,1006.51
2018-07-28T00:49:01.117Z,1006.51
2018-07-28T00:50:01.149Z,1006.50
2018-07-28T00:51:01.170Z,1006.49
2018-07-28T00:52:01.183Z,1006.45
2018-07-28T00:53:01.213Z,1006.48
2018-07-28T00:54:01.233Z,1006.49
2018-07-28T00:55:01.262Z,1006.49
2018-07-28T00:56:01.290Z,1006.50
2018-07-28T00:57:01.313Z,1006.50
2018-07-28T00:58:01.340Z,1006.50
2018-07-28T00:59:01.366Z,1006.50
2018-07-28T01:00:01.391Z,1006.49
2018-07-28T01:01:01.416Z,1006.53
2018-07-28T01:02:01.430Z,1006.54
2018-07-28T01:03:01.455Z,1006.52
2018-07-28T01:04:01.488Z,1006.52
2018-07-28T01:05:01.511Z,1006.53
2018-07-28T01:06:01.536Z,1006.51
2018-07-28T01:07:01.562Z,1006.51
2018-07-28T01:08:01.587Z,1006.52
2018-07-28T01:09:01.614Z,1006.47
2018-07-28T01:10:01.640Z,1006.48
2018-07-28T01:11:01.652Z,1006.48
2018-07-28T01:12:01.692Z,1006.44
2018-07-28T01:13:01.701Z,1006.45
2018-07-28T01:14:01.741Z,1006.51
2018-07-28T01:15:01.754Z,1006.43
2018-07-28T01:16:01.782Z,1006.45
2018-07-28T01:17:01.807Z,1006.39
2018-07-28T01:18:01.846Z,1006.38
2018-07-28T01:19:01.860Z,1006.38
2018-07-28T01:20:01.872Z,1006.35
2018-07-28T01:21:01.898Z,1006.37
2018-07-28T01:22:01.924Z,1006.34
2018-07-28T01:23:01.950Z,1006.34
2018-07-28T01:24:01.975Z,1006.29
2018-07-28T01:25:02.003Z,1006.32
2018-07-28T01:26:02.028Z,1006.28
2018-07-28T01:27:02.054Z,1006.25
2018-07-28T01:28:02.068Z,1006.25
2018-07-28T01:29:02.094Z,1006.22
2018-07-28T01:30:02.120Z,1006.23
2018-07-28T01:31:02.145Z,1006.22
2018-07-28T01:32:02.170Z,1006.20
2018-07-28T01:33:02.195Z,1006.16
2018-07-28T01:34:02.234Z,1006.17
2018-07-28T01:35:02.247Z,1006.18
2018-07-28T01:36:02.263Z,1006.17
2018-07-28T01:37:02.290Z,1006.16
2018-07-28T01:38:02.316Z,1006.19
2018-07-28T01:39:02.346Z,1006.17
2018-07-28T01:40:02.367Z,1006.17
2018-07-28T01:41:02.394Z,1006.11
2018-07-28T01:42:02.419Z,1006.11
2018-07-28T01:43:02.433Z,1006.12
2018-07-28T01:44:02.456Z,1006.13
2018-07-28T01:45:02.482Z,1006.10
2018-07-28T01:46:02.508Z,1006.09
2018-07-28T01:47:02.538Z,1006.07
2018-07-28T01:48:02.564Z,1006.07
2018-07-28T01:49:02.588Z,1006.06
2018-07-28T01:50:02.619Z,1006.08
2018-07-28T01:51:02.627Z,1006.03
2018-07-28T01:52:02.653Z,1006.08
2018-07-28T01:53:02.677Z,1006.08
2018-07-28T01:54:02.705Z,1006.09
2018-07-28T01:55:02.729Z,1006.09
2018-07-28T01:56:02.755Z,1006.12
2018-07-28T01:57:02.782Z,1006.10
2018-07-28T01:58:02.796Z,1006.07
2018-07-28T01:59:02.820Z,1006.04
2018-07-28T02:00:02.848Z,1006.03
2018-07-28T02:01:02.874Z,1006.02
2018-07-28T02:02:02.916Z,1005.97
2018-07-28T02:03:02.925Z,1005.91
2018-07-28T02:04:02.950Z,1005.86
2018-07-28T02:05:02.964Z,1005.88
2018-07-28T02:06:02.990Z,1005.89
2018-07-28T02:07:03.016Z,1005.88
2018-07-28T02:08:03.045Z,1005.82
2018-07-28T02:09:03.070Z,1005.83
2018-07-28T02:10:03.096Z,1005.80
2018-07-28T02:11:03.124Z,1005.82
2018-07-28T02:12:03.134Z,1005.83
2018-07-28T02:13:03.161Z,1005.82
2018-07-28T02:14:03.184Z,1005.83
2018-07-28T02:15:03.211Z,1005.77
2018-07-28T02:16:03.243Z,1005.78
2018-07-28T02:17:03.264Z,1005.78
2018-07-28T02:18:03.293Z,1005.73
2018-07-28T02:19:03.315Z,1005.76
2018-07-28T02:20:03.328Z,1005.75
2018-07-28T02:21:03.353Z,1005.72
2018-07-28T02:22:03.379Z,1005.72
2018-07-28T02:23:03.408Z,1005.69
2018-07-28T02:24:03.433Z,1005.72
2018-07-28T02:25:03.462Z,1005.66
2018-07-28T02:26:03.485Z,1005.66
2018-07-28T02:27:03.499Z,1005.66
2018-07-28T02:28:03.524Z,1005.70
2018-07-28T02:29:03.550Z,1005.66
2018-07-28T02:30:03.594Z,1005.64
2018-07-28T02:31:03.604Z,1005.63
2018-07-28T02:32:03.625Z,1005.62
2018-07-28T02:33:03.652Z,1005.65
2018-07-28T02:34:03.666Z,1005.60
2018-07-28T02:35:03.692Z,1005.60
2018-07-28T02:36:03.719Z,1005.58
2018-07-28T02:37:03.746Z,1005.60
2018-07-28T02:38:03.771Z,1005.55
2018-07-28T02:39:03.797Z,1005.58
2018-07-28T02:40:03.831Z,1005.54
2018-07-28T02:41:03.834Z,1005.53
2018-07-28T02:42:03.860Z,1005.46
2018-07-28T02:43:03.886Z,1005.48
2018-07-28T02:44:03.912Z,1005.49
2018-07-28T02:45:03.938Z,1005.46
2018-07-28T02:46:03.976Z,1005.47
2018-07-28T02:47:03.990Z,1005.43
2018-07-28T02:48:04.006Z,1005.45
2018-07-28T02:49:04.032Z,1005.45
2018-07-28T02:50:04.058Z,1005.43
2018-07-28T02:51:04.084Z,1005.47
2018-07-28T02:52:04.108Z,1005.47
2018-07-28T02:53:04.134Z,1005.49
2018-07-28T02:54:04.153Z,1005.49
2018-07-28T02:55:04.172Z,1005.49
2018-07-28T02:56:04.200Z,1005.47
2018-07-28T02:57:04.237Z,1005.49
2018-07-28T02:58:04.252Z,1005.46
2018-07-28T02:59:04.279Z,1005.49
2018-07-28T03:00:04.316Z,1005.45
2018-07-28T03:01:04.320Z,1005.48
2018-07-28T03:02:04.344Z,1005.46
2018-07-28T03:03:04.370Z,1005.43
2018-07-28T03:04:04.394Z,1005.44
2018-07-28T03:05:04.425Z,1005.44
2018-07-28T03:06:04.434Z,1005.41
2018-07-28T03:07:04.459Z,1005.43
2018-07-28T03:08:04.502Z,1005.42
2018-07-28T03:09:04.513Z,1005.43
2018-07-28T03:10:04.539Z,1005.42
2018-07-28T03:11:04.566Z,1005.37
2018-07-28T03:12:04.578Z,1005.39
2018-07-28T03:13:04.602Z,1005.39
2018-07-28T03:14:04.629Z,1005.43
2018-07-28T03:15:04.655Z,1005.45
2018-07-28T03:16:04.684Z,1005.41
2018-07-28T03:17:04.706Z,1005.40
2018-07-28T03:18:04.737Z,1005.40
2018-07-28T03:19:04.746Z,1005.39
2018-07-28T03:20:04.773Z,1005.37
2018-07-28T03:21:04.806Z,1005.41
2018-07-28T03:22:04.825Z,1005.39
2018-07-28T03:23:04.863Z,1005.41
2018-07-28T03:24:04.877Z,1005.36
2018-07-28T03:25:04.892Z,1005.36
2018-07-28T03:26:04.914Z,1005.36
2018-07-28T03:27:04.941Z,1005.38
2018-07-28T03:28:04.969Z,1005.37
2018-07-28T03:29:04.994Z,1005.35
2018-07-28T03:30:05.021Z,1005.33
2018-07-28T03:31:05.034Z,1005.36
2018-07-28T03:32:05.061Z,1005.33
2018-07-28T03:33:05.085Z,1005.38
2018-07-28T03:34:05.115Z,1005.35
2018-07-28T03:35:05.136Z,1005.33
2018-07-28T03:36:05.162Z,1005.37
2018-07-28T03:37:05.175Z,1005.41
2018-07-28T03:38:05.200Z,1005.36
2018-07-28T03:39:05.227Z,1005.33
2018-07-28T03:40:05.255Z,1005.38
2018-07-28T03:41:05.280Z,1005.35
2018-07-28T03:42:05.307Z,1005.37
2018-07-28T03:43:05.320Z,1005.38
2018-07-28T03:44:05.342Z,1005.37
2018-07-28T03:45:05.368Z,1005.35
2018-07-28T03:46:05.395Z,1005.32
2018-07-28T03:47:05.421Z,1005.34
2018-07-28T03:48:05.446Z,1005.36
2018-07-28T03:49:05.462Z,1005.33
2018-07-28T03:50:05.487Z,1005.33
2018-07-28T03:51:05.513Z,1005.34
2018-07-28T03:52:05.541Z,1005.33
2018-07-28T03:53:05.566Z,1005.32
2018-07-28T03:54:05.592Z,1005.32
2018-07-28T03:55:05.607Z,1005.36
2018-07-28T03:56:05.629Z,1005.36
2018-07-28T03:57:05.655Z,1005.38
2018-07-28T03:58:05.681Z,1005.37
2018-07-28T03:59:05.720Z,1005.33
2018-07-28T04:00:05.736Z,1005.32
2018-07-28T04:01:05.750Z,1005.31
2018-07-28T04:02:05.776Z,1005.37
2018-07-28T04:03:05.801Z,1005.34
2018-07-28T04:04:05.853Z,1005.32
2018-07-28T04:05:05.853Z,1005.35
2018-07-28T04:06:05.878Z,1005.34
2018-07-28T04:07:05.904Z,1005.36
2018-07-28T04:08:05.916Z,1005.34
2018-07-28T04:09:05.943Z,1005.30
2018-07-28T04:10:05.966Z,1005.32
2018-07-28T04:11:05.992Z,1005.32
2018-07-28T04:12:06.022Z,1005.34
2018-07-28T04:13:06.047Z,1005.34
2018-07-28T04:14:06.061Z,1005.37
2018-07-28T04:15:06.088Z,1005.35
2018-07-28T04:16:06.110Z,1005.36
2018-07-28T04:17:06.137Z,1005.34
2018-07-28T04:18:06.162Z,1005.37
2018-07-28T04:19:06.190Z,1005.35
2018-07-28T04:20:06.208Z,1005.30
2018-07-28T04:21:06.242Z,1005.34
2018-07-28T04:22:06.261Z,1005.29
2018-07-28T04:23:06.280Z,1005.28
2018-07-28T04:24:06.305Z,1005.26
2018-07-28T04:25:06.331Z,1005.28
2018-07-28T04:26:06.356Z,1005.30
2018-07-28T04:27:06.377Z,1005.26
2018-07-28T04:28:06.402Z,1005.26
2018-07-28T04:29:06.427Z,1005.26
2018-07-28T04:30:06.451Z,1005.25
2018-07-28T04:31:06.477Z,1005.25
2018-07-28T04:32:06.501Z,1005.22
2018-07-28T04:33:06.527Z,1005.22
2018-07-28T04:34:06.539Z,1005.27
2018-07-28T04:35:06.566Z,1005.32
2018-07-28T04:36:06.591Z,1005.33
2018-07-28T04:37:06.706Z,1005.36
2018-07-28T04:38:06.645Z,1005.32
2018-07-28T04:39:06.669Z,1005.29
2018-07-28T04:40:06.685Z,1005.35
2018-07-28T04:41:06.711Z,1005.35
2018-07-28T04:42:06.736Z,1005.37
2018-07-28T04:43:06.763Z,1005.37
2018-07-28T04:44:06.845Z,1005.40
2018-07-28T04:45:06.812Z,1005.36
2018-07-28T04:46:06.839Z,1005.36
2018-07-28T04:47:06.864Z,1005.37
2018-07-28T04:48:06.879Z,1005.35
2018-07-28T04:49:06.905Z,1005.32
2018-07-28T04:50:06.932Z,1005.36
2018-07-28T04:51:06.956Z,1005.38
2018-07-28T04:52:06.982Z,1005.39
2018-07-28T04:53:07.008Z,1005.36
2018-07-28T04:54:07.034Z,1005.35
2018-07-28T04:55:07.048Z,1005.31
2018-07-28T04:56:07.073Z,1005.30
2018-07-28T04:57:07.102Z,1005.29
2018-07-28T04:58:07.125Z,1005.25
2018-07-28T04:59:07.150Z,1005.28
2018-07-28T05:00:07.178Z,1005.30
2018-07-28T05:01:07.204Z,1005.30
2018-07-28T05:02:07.218Z,1005.30
2018-07-28T05:03:07.243Z,1005.29
2018-07-28T05:04:07.266Z,1005.28
2018-07-28T05:05:07.305Z,1005.29
2018-07-28T05:06:07.319Z,1005.28
2018-07-28T05:07:07.345Z,1005.30
2018-07-28T05:08:07.370Z,1005.31
2018-07-28T05:09:07.397Z,1005.28
2018-07-28T05:10:07.410Z,1005.29
2018-07-28T05:11:07.438Z,1005.28
2018-07-28T05:12:07.471Z,1005.32
2018-07-28T05:13:07.493Z,1005.31
2018-07-28T05:14:07.516Z,1005.29
2018-07-28T05:15:07.543Z,1005.31
2018-07-28T05:16:07.567Z,1005.29
2018-07-28T05:17:07.593Z,1005.29
2018-07-28T05:18:07.606Z,1005.28
2018-07-28T05:19:07.632Z,1005.28
2018-07-28T05:20:07.659Z,1005.26
2018-07-28T05:21:07.687Z,1005.27
2018-07-28T05:22:07.712Z,1005.27
2018-07-28T05:23:07.737Z,1005.24
2018-07-28T05:24:07.763Z,1005.26
2018-07-28T05:25:07.789Z,1005.23
2018-07-28T05:26:07.814Z,1005.21
2018-07-28T05:27:07.830Z,1005.23
2018-07-28T05:28:07.852Z,1005.20
2018-07-28T05:29:07.878Z,1005.26
2018-07-28T05:30:07.904Z,1005.25
2018-07-28T05:31:07.938Z,1005.25
2018-07-28T05:32:07.958Z,1005.21
2018-07-28T05:33:07.986Z,1005.21
2018-07-28T05:34:08.011Z,1005.18
2018-07-28T05:35:08.036Z,1005.19
2018-07-28T05:36:08.047Z,1005.17
2018-07-28T05:37:08.084Z,1005.15
2018-07-28T05:38:08.099Z,1005.15
2018-07-28T05:39:08.199Z,1005.19
2018-07-28T05:40:08.151Z,1005.15
2018-07-28T05:41:08.178Z,1005.13
2018-07-28T05:42:08.208Z,1005.19
2018-07-28T05:43:08.230Z,1005.17
2018-07-28T05:44:08.257Z,1005.17
2018-07-28T05:45:08.283Z,1005.18
2018-07-28T05:46:08.311Z,1005.15
2018-07-28T05:47:08.335Z,1005.26
2018-07-28T05:48:08.349Z,1005.19
2018-07-28T05:49:08.373Z,1005.20
2018-07-28T05:50:08.409Z,1005.22
2018-07-28T05:51:08.424Z,1005.22
2018-07-28T05:52:08.453Z,1005.18
2018-07-28T05:53:08.482Z,1005.18
2018-07-28T05:54:08.506Z,1005.14
2018-07-28T05:55:08.530Z,1005.13
2018-07-28T05:56:08.558Z,1005.14
2018-07-28T05:57:08.582Z,1005.13
2018-07-28T05:58:08.608Z,1005.13
2018-07-28T05:59:08.634Z,1005.10
2018-07-28T06:00:08.657Z,1005.10
2018-07-28T06:01:08.684Z,1005.05
2018-07-28T06:02:08.745Z,1005.03
2018-07-28T06:03:08.740Z,1005.04
2018-07-28T06:04:08.752Z,1005.03
2018-07-28T06:05:08.776Z,1005.00
2018-07-28T06:06:08.803Z,1005.02
2018-07-28T06:07:08.827Z,1005.03
2018-07-28T06:08:08.852Z,1005.01
2018-07-28T06:09:08.878Z,1005.05
2018-07-28T06:10:08.917Z,1005.02
2018-07-28T06:11:08.929Z,1005.03
2018-07-28T06:12:08.956Z,1005.03
2018-07-28T06:13:08.981Z,1005.05
2018-07-28T06:14:09.018Z,1005.03
2018-07-28T06:15:09.033Z,1005.03
2018-07-28T06:16:09.062Z,1005.00
2018-07-28T06:17:09.090Z,1005.02
2018-07-28T06:18:09.113Z,1005.04
2018-07-28T06:19:09.138Z,1005.03
2018-07-28T06:20:09.197Z,1005.02
2018-07-28T06:21:09.188Z,1005.04
2018-07-28T06:22:09.215Z,1005.04
2018-07-28T06:23:09.241Z,1005.08
2018-07-28T06:24:09.268Z,1005.11
2018-07-28T06:25:09.299Z,1005.10
2018-07-28T06:26:09.321Z,1005.15
2018-07-28T06:27:09.347Z,1005.14
2018-07-28T06:28:09.370Z,1005.10
2018-07-28T06:29:09.406Z,1005.11
2018-07-28T06:30:09.422Z,1005.08
2018-07-28T06:31:09.447Z,1005.08
2018-07-28T06:32:09.476Z,1005.09
2018-07-28T06:33:09.502Z,1005.08
2018-07-28T06:34:09.529Z,1005.09
2018-07-28T06:35:09.553Z,1005.11
2018-07-28T06:36:09.578Z,1005.05
2018-07-28T06:37:09.608Z,1005.14
2018-07-28T06:38:09.631Z,1005.06
2018-07-28T06:39:09.669Z,1005.07
2018-07-28T06:40:09.698Z,1005.08
2018-07-28T06:41:09.724Z,1005.02
2018-07-28T06:42:09.748Z,1004.96
2018-07-28T06:43:09.803Z,1005.02
2018-07-28T06:44:09.800Z,1004.94
2018-07-28T06:45:09.838Z,1004.95
2018-07-28T06:46:09.864Z,1004.95
2018-07-28T06:47:09.935Z,1004.97
2018-07-28T06:48:09.913Z,1004.97
2018-07-28T06:49:09.954Z,1004.98
2018-07-28T06:50:09.981Z,1005.02
2018-07-28T06:51:10.011Z,1005.01
2018-07-28T06:52:10.045Z,1005.01
2018-07-28T06:53:10.084Z,1005.01
2018-07-28T06:54:10.097Z,1004.95
2018-07-28T06:55:10.136Z,1004.96
2018-07-28T06:56:10.160Z,1004.95
2018-07-28T06:57:10.185Z,1004.95
2018-07-28T06:58:10.226Z,1004.95
2018-07-28T06:59:10.252Z,1004.85
2018-07-28T07:00:10.538Z,1004.82
2018-07-28T07:01:10.314Z,1004.86
2018-07-28T07:02:10.352Z,1004.86
2018-07-28T07:03:10.378Z,1004.84
2018-07-28T07:04:10.419Z,1004.84
2018-07-28T07:05:10.447Z,1004.91
2018-07-28T07:06:10.483Z,1004.85
2018-07-28T07:07:10.509Z,1004.83
2018-07-28T07:08:10.547Z,1004.89
2018-07-28T07:09:10.572Z,1004.83
2018-07-28T07:10:10.610Z,1004.85
2018-07-28T07:11:10.635Z,1004.89
2018-07-28T07:12:10.677Z,1004.85
2018-07-28T07:13:10.702Z,1004.82
2018-07-28T07:14:10.741Z,1004.82
2018-07-28T07:15:10.780Z,1004.83
2018-07-28T07:16:10.805Z,1004.84
2018-07-28T07:17:10.845Z,1004.81
2018-07-28T07:18:10.885Z,1004.79
2018-07-28T07:19:10.908Z,1004.76
2018-07-28T07:20:10.944Z,1004.79
2018-07-28T07:21:10.972Z,1004.79
2018-07-28T07:22:11.009Z,1004.77
2018-07-28T07:23:11.047Z,1004.78
2018-07-28T07:24:11.076Z,1004.75
2018-07-28T07:25:11.117Z,1004.75
2018-07-28T07:26:11.152Z,1004.74
2018-07-28T07:27:11.190Z,1004.75
2018-07-28T07:28:11.214Z,1004.72
2018-07-28T07:29:11.252Z,1004.74
2018-07-28T07:30:11.291Z,1004.72
2018-07-28T07:31:11.328Z,1004.78
2018-07-28T07:32:11.356Z,1004.75
2018-07-28T07:33:11.397Z,1004.76
2018-07-28T07:34:11.438Z,1004.79
2018-07-28T07:35:11.473Z,1004.73
2018-07-28T07:36:11.543Z,1004.74
2018-07-28T07:37:11.547Z,1004.76
2018-07-28T07:38:11.575Z,1004.76
2018-07-28T07:39:11.611Z,1004.75
2018-07-28T07:40:11.640Z,1004.73
2018-07-28T07:41:11.679Z,1004.71
2018-07-28T07:42:11.716Z,1004.70
2018-07-28T07:43:11.755Z,1004.69
2018-07-28T07:44:11.790Z,1004.69
2018-07-28T07:45:11.819Z,1004.69
2018-07-28T07:46:11.859Z,1004.69
2018-07-28T07:47:11.934Z,1004.63
2018-07-28T07:48:11.936Z,1004.70
2018-07-28T07:49:11.970Z,1004.68
2018-07-28T07:50:12.010Z,1004.64
2018-07-28T07:51:12.048Z,1004.69
2018-07-28T07:52:12.077Z,1004.66
2018-07-28T07:53:12.114Z,1004.68
2018-07-28T07:54:12.153Z,1004.68
2018-07-28T07:55:12.192Z,1004.68
2018-07-28T07:56:12.227Z,1004.64
2018-07-28T07:57:12.266Z,1004.69
2018-07-28T07:58:12.316Z,1004.68
2018-07-28T07:59:12.343Z,1004.67
2018-07-28T08:00:12.371Z,1004.68
2018-07-28T08:01:12.410Z,1004.65
2018-07-28T08:02:12.448Z,1004.64
2018-07-28T08:03:12.486Z,1004.64
2018-07-28T08:04:12.524Z,1004.69
2018-07-28T08:05:12.564Z,1004.67
2018-07-28T08:06:12.603Z,1004.61
2018-07-28T08:07:12.639Z,1004.61
2018-07-28T08:08:12.679Z,1004.63
2018-07-28T08:09:12.716Z,1004.59
2018-07-28T08:10:12.754Z,1004.59
2018-07-28T08:11:12.791Z,1004.56
2018-07-28T08:12:12.821Z,1004.64
2018-07-28T08:13:12.858Z,1004.60
2018-07-28T08:14:12.896Z,1004.65
2018-07-28T08:15:12.936Z,1004.59
2018-07-28T08:16:12.971Z,1004.60
2018-07-28T08:17:13.012Z,1004.60
2018-07-28T08:18:13.047Z,1004.62
2018-07-28T08:19:13.086Z,1004.58
2018-07-28T08:20:13.124Z,1004.62
2018-07-28T08:21:13.164Z,1004.54
2018-07-28T08:22:13.203Z,1004.60
2018-07-28T08:23:13.242Z,1004.61
2018-07-28T08:24:13.287Z,1004.62
2018-07-28T08:25:13.320Z,1004.64
2018-07-28T08:26:13.357Z,1004.66
2018-07-28T08:27:13.396Z,1004.63
2018-07-28T08:28:13.444Z,1004.58
2018-07-28T08:29:13.472Z,1004.59
2018-07-28T08:30:13.509Z,1004.56
2018-07-28T08:31:13.548Z,1004.58
2018-07-28T08:32:13.588Z,1004.50
2018-07-28T08:33:13.629Z,1004.59
2018-07-28T08:34:13.664Z,1004.55
2018-07-28T08:35:13.703Z,1004.55
2018-07-28T08:36:13.740Z,1004.56
2018-07-28T08:37:13.779Z,1004.47
2018-07-28T08:38:13.817Z,1004.45
2018-07-28T08:39:13.868Z,1004.45
2018-07-28T08:40:13.896Z,1004.47
2018-07-28T08:41:13.947Z,1004.50
2018-07-28T08:42:13.973Z,1004.46
2018-07-28T08:43:14.012Z,1004.41
2018-07-28T08:44:14.047Z,1004.41
2018-07-28T08:45:14.099Z,1004.39
2018-07-28T08:46:14.124Z,1004.44
2018-07-28T08:47:14.166Z,1004.47
2018-07-28T08:48:14.202Z,1004.46
2018-07-28T08:49:14.264Z,1004.49
2018-07-28T08:50:14.293Z,1004.40
2018-07-28T08:51:14.322Z,1004.48
2018-07-28T08:52:14.357Z,1004.43
2018-07-28T08:53:14.396Z,1004.48
2018-07-28T08:54:14.437Z,1004.44
2018-07-28T08:55:14.473Z,1004.45
2018-07-28T08:56:14.497Z,1004.39
2018-07-28T08:57:14.534Z,1004.45
2018-07-28T08:58:14.574Z,1004.37
2018-07-28T08:59:14.611Z,1004.43
2018-07-28T09:00:14.652Z,1004.37
2018-07-28T09:01:14.690Z,1004.40
2018-07-28T09:02:14.729Z,1004.44
2018-07-28T09:03:14.781Z,1004.41
2018-07-28T09:04:14.790Z,1004.40
2018-07-28T09:05:14.830Z,1004.40
2018-07-28T09:06:14.868Z,1004.41
2018-07-28T09:07:14.906Z,1004.36
2018-07-28T09:08:14.946Z,1004.44
2018-07-28T09:09:14.984Z,1004.42
2018-07-28T09:10:15.021Z,1004.43
2018-07-28T09:11:15.048Z,1004.45
2018-07-28T09:12:15.097Z,1004.37
2018-07-28T09:13:15.126Z,1004.45
2018-07-28T09:14:15.165Z,1004.43
2018-07-28T09:15:15.203Z,1004.44
2018-07-28T09:16:15.240Z,1004.44
2018-07-28T09:17:15.266Z,1004.45
2018-07-28T09:18:15.305Z,1004.48
2018-07-28T09:19:15.344Z,1004.49
2018-07-28T09:20:15.382Z,1004.45
2018-07-28T09:21:15.422Z,1004.46
2018-07-28T09:22:15.460Z,1004.44
2018-07-28T09:23:15.561Z,1004.44
2018-07-28T09:24:15.525Z,1004.47
2018-07-28T09:25:15.563Z,1004.43
2018-07-28T09:26:15.602Z,1004.48
2018-07-28T09:27:15.639Z,1004.47
2018-07-28T09:28:15.676Z,1004.48
2018-07-28T09:29:15.713Z,1004.49
2018-07-28T09:30:15.755Z,1004.48
2018-07-28T09:31:15.791Z,1004.46
2018-07-28T09:32:15.822Z,1004.54
2018-07-28T09:33:15.857Z,1004.45
2018-07-28T09:34:15.896Z,1004.50
2018-07-28T09:35:15.937Z,1004.44
2018-07-28T09:36:15.983Z,1004.40
2018-07-28T09:37:16.013Z,1004.37
2018-07-28T09:38:16.048Z,1004.35
2018-07-28T09:39:16.089Z,1004.35
2018-07-28T09:40:16.125Z,1004.32
2018-07-28T09:41:16.163Z,1004.29
2018-07-28T09:42:16.206Z,1004.35
2018-07-28T09:43:16.240Z,1004.28
2018-07-28T09:44:16.289Z,1004.25
2018-07-28T09:45:16.341Z,1004.27
2018-07-28T09:46:16.394Z,1004.27
2018-07-28T09:47:16.396Z,1004.30
2018-07-28T09:48:16.445Z,1004.30
2018-07-28T09:49:16.470Z,1004.22
2018-07-28T09:50:16.508Z,1004.25
2018-07-28T09:51:16.548Z,1004.27
2018-07-28T09:52:16.588Z,1004.31
2018-07-28T09:53:16.626Z,1004.33
2018-07-28T09:54:16.677Z,1004.35
2018-07-28T09:55:16.705Z,1004.34
2018-07-28T09:56:16.761Z,1004.35
2018-07-28T09:57:16.780Z,1004.25
2018-07-28T09:58:16.818Z,1004.33
2018-07-28T09:59:16.857Z,1004.22
2018-07-28T10:00:16.905Z,1004.18
2018-07-28T10:01:16.944Z,1004.20
2018-07-28T10:02:16.983Z,1004.18
2018-07-28T10:03:17.033Z,1004.16
2018-07-28T10:04:17.062Z,1004.23
2018-07-28T10:05:17.099Z,1004.20
2018-07-28T10:06:17.138Z,1004.15
2018-07-28T10:07:17.176Z,1004.10
2018-07-28T10:08:17.217Z,1004.04
2018-07-28T10:09:17.264Z,1004.04
2018-07-28T10:10:17.292Z,1004.06
2018-07-28T10:11:17.341Z,1004.09
2018-07-28T10:12:17.389Z,1004.12
2018-07-28T10:13:17.419Z,1004.11
2018-07-28T10:14:17.456Z,1004.03
2018-07-28T10:15:17.495Z,1004.03
2018-07-28T10:16:17.556Z,1004.01
2018-07-28T10:17:17.585Z,1004.00
2018-07-28T10:18:17.624Z,1003.93
2018-07-28T10:19:17.662Z,1003.92
2018-07-28T10:20:17.699Z,1003.92
2018-07-28T10:21:17.750Z,1003.89
2018-07-28T10:22:17.788Z,1003.88
2018-07-28T10:23:17.828Z,1003.79
2018-07-28T10:24:17.867Z,1003.84
2018-07-28T10:25:17.917Z,1003.87
2018-07-28T10:26:17.956Z,1003.85
2018-07-28T10:27:17.997Z,1003.79
2018-07-28T10:28:18.046Z,1003.86
2018-07-28T10:29:18.088Z,1003.96
2018-07-28T10:30:18.207Z,1003.94
2018-07-28T10:31:18.173Z,1003.93
2018-07-28T10:32:18.211Z,1003.96
2018-07-28T10:33:18.249Z,1003.91
2018-07-28T10:34:18.299Z,1003.93
2018-07-28T10:35:18.341Z,1003.95
2018-07-28T10:36:18.403Z,1004.03
2018-07-28T10:37:18.428Z,1004.06
2018-07-28T10:38:18.467Z,1004.07
2018-07-28T10:39:18.518Z,1004.01
2018-07-28T10:40:18.555Z,1004.02
2018-07-28T10:41:18.609Z,1003.93
2018-07-28T10:42:18.644Z,1003.96
2018-07-28T10:43:18.683Z,1004.06
2018-07-28T10:44:18.736Z,1004.04
2018-07-28T10:45:18.775Z,1004.02
2018-07-28T10:46:18.828Z,1003.86
2018-07-28T10:47:18.863Z,1004.00
2018-07-28T10:48:18.901Z,1004.03
2018-07-28T10:49:18.951Z,1003.92
2018-07-28T10:50:18.993Z,1003.91
2018-07-28T10:51:19.043Z,1003.92
2018-07-28T10:52:19.081Z,1003.80
2018-07-28T10:53:19.131Z,1003.80
2018-07-28T10:54:19.182Z,1003.79
2018-07-28T10:55:19.210Z,1003.72
2018-07-28T10:56:19.258Z,1003.69
2018-07-28T10:57:19.296Z,1003.63
2018-07-28T10:58:19.334Z,1003.61
2018-07-28T10:59:19.385Z,1003.64
2018-07-28T11:00:19.452Z,1003.56
2018-07-28T11:01:19.486Z,1003.56
2018-07-28T11:02:19.513Z,1003.60
2018-07-28T11:03:19.567Z,1003.56
2018-07-28T11:04:19.603Z,1003.60
2018-07-28T11:05:19.654Z,1003.59
2018-07-28T11:06:19.724Z,1003.61
2018-07-28T11:07:19.745Z,1003.57
2018-07-28T11:08:19.780Z,1003.54
2018-07-28T11:09:19.832Z,1003.59
2018-07-28T11:10:19.871Z,1003.60
2018-07-28T11:11:19.921Z,1003.64
2018-07-28T11:12:19.960Z,1003.64
2018-07-28T11:13:20.012Z,1003.59
2018-07-28T11:14:20.055Z,1003.55
2018-07-28T11:15:20.105Z,1003.49
2018-07-28T11:16:20.140Z,1003.49
2018-07-28T11:17:20.191Z,1003.55
2018-07-28T11:18:20.230Z,1003.41
2018-07-28T11:19:20.280Z,1003.60
2018-07-28T11:20:20.317Z,1003.62
2018-07-28T11:21:20.355Z,1003.62
2018-07-28T11:22:20.407Z,1003.62
2018-07-28T11:23:20.449Z,1003.68
2018-07-28T11:24:20.485Z,1003.66
2018-07-28T11:25:20.536Z,1003.65
2018-07-28T11:26:20.600Z,1003.61
2018-07-28T11:27:20.614Z,1003.46
2018-07-28T11:28:20.651Z,1003.51
2018-07-28T11:29:20.690Z,1003.53
2018-07-28T11:30:20.739Z,1003.45
2018-07-28T11:31:20.780Z,1003.47
2018-07-28T11:32:20.816Z,1003.47
2018-07-28T11:33:20.886Z,1003.46
2018-07-28T11:34:20.892Z,1003.44
2018-07-28T11:35:20.931Z,1003.40
2018-07-28T11:36:20.998Z,1003.41
2018-07-28T11:37:21.022Z,1003.41
2018-07-28T11:38:21.060Z,1003.42
2018-07-28T11:39:21.100Z,1003.43
2018-07-28T11:40:21.137Z,1003.44
2018-07-28T11:41:21.176Z,1003.48
2018-07-28T11:42:21.213Z,1003.45
2018-07-28T11:43:21.264Z,1003.39
2018-07-28T11:44:21.304Z,1003.41
2018-07-28T11:45:21.355Z,1003.40
2018-07-28T11:46:21.384Z,1003.38
2018-07-28T11:47:21.422Z,1003.34
2018-07-28T11:48:21.470Z,1003.37
2018-07-28T11:49:21.508Z,1003.39
2018-07-28T11:50:21.546Z,1003.32
2018-07-28T11:51:21.629Z,1003.27
2018-07-28T11:52:21.622Z,1003.33
2018-07-28T11:53:21.673Z,1003.36
2018-07-28T11:54:21.715Z,1003.33
2018-07-28T11:55:21.750Z,1003.36
2018-07-28T11:56:21.790Z,1003.35
2018-07-28T11:57:21.841Z,1003.28
2018-07-28T11:58:21.971Z,1003.38
2018-07-28T11:59:21.918Z,1003.34
2018-07-28T12:00:21.953Z,1003.32
2018-07-28T12:01:21.994Z,1003.32
2018-07-28T12:02:22.044Z,1003.26
2018-07-28T12:03:22.082Z,1003.20
2018-07-28T12:04:22.120Z,1003.18
2018-07-28T12:05:22.208Z,1003.16
2018-07-28T12:06:22.209Z,1003.11